Time;durP1;ratioP1;P1;durP2;ratioP2;P2;SDS_P1;SDS_P2;PMS_P1;PMS_P2;Temp;Humidity;BMP_temperature;BMP_pressure;BME280_temperature;BME280_humidity;BME280_pressure;Samples;Min_cycle;Max_cycle;Signal;HPM_P1;HPM_P2
2020/12/21 00:01:44;;;;;;;10.51;4.49;;;7.00;99.90;;;12.09;88.27;101863.41;1790694;71;24881;-79
2020/12/21 00:04:00;;;;;;;5.98;3.39;;;7.00;99.90;;;11.72;88.08;101859.98;1769218;71;24538;-81
2020/12/21 00:06:17;;;;;;;14.60;6.27;;;7.00;99.90;;;11.56;89.11;101853.93;1768760;71;24470;-79
2020/12/21 00:08:33;;;;;;;10.88;5.76;;;7.00;99.90;;;11.73;89.19;101851.30;1772738;71;24529;-81
2020/12/21 00:10:51;;;;;;;12.07;5.33;;;7.00;99.90;;;11.79;88.91;101851.46;1773559;71;24867;-82
2020/12/21 00:13:08;;;;;;;13.76;4.84;;;6.90;99.90;;;11.72;88.86;101854.77;1770783;71;25009;-81
2020/12/21 00:15:28;;;;;;;15.53;5.35;;;6.90;99.90;;;11.65;88.94;101858.11;1769749;71;24424;-80
2020/12/21 00:17:45;;;;;;;11.23;5.59;;;6.90;99.90;;;11.60;89.60;101856.64;1775701;71;24449;-82
2020/12/21 00:20:01;;;;;;;12.91;5.96;;;6.90;99.90;;;11.73;89.36;101860.02;1767069;71;24994;-81
2020/12/21 00:22:21;;;;;;;8.06;4.68;;;6.90;99.90;;;11.94;88.62;101860.50;1775661;71;24930;-81
2020/12/21 00:24:37;;;;;;;13.79;5.96;;;6.80;99.90;;;11.58;89.26;101858.77;1773061;71;24974;-79
2020/12/21 00:26:56;;;;;;;11.77;6.08;;;6.90;99.90;;;11.87;88.92;101855.12;1767024;71;25019;-83
2020/12/21 00:29:15;;;;;;;14.40;6.17;;;6.80;99.90;;;11.91;88.99;101847.80;1760273;72;24995;-80
2020/12/21 00:31:36;;;;;;;13.60;6.31;;;6.80;99.90;;;11.83;88.49;101849.36;1773233;71;24562;-81
2020/12/21 00:34:05;;;;;;;12.76;5.25;;;6.80;99.90;;;11.68;88.65;101842.52;1769159;71;24445;-79
2020/12/21 00:36:27;;;;;;;13.15;5.79;;;6.80;99.90;;;11.57;89.04;101850.05;1770907;71;24464;-80
2020/12/21 00:38:43;;;;;;;13.64;5.67;;;6.80;99.90;;;11.78;88.91;101853.59;1770489;71;24597;-81
2020/12/21 00:40:59;;;;;;;14.47;6.36;;;6.70;99.90;;;11.74;88.38;101848.76;1770614;71;24540;-80
2020/12/21 00:43:15;;;;;;;18.79;5.80;;;6.70;99.90;;;11.84;88.49;101848.09;1770073;71;24501;-80
2020/12/21 00:45:35;;;;;;;12.74;4.79;;;6.70;99.90;;;11.65;88.38;101852.89;1767582;71;24458;-80
2020/12/21 00:47:50;;;;;;;13.47;3.88;;;6.70;99.90;;;11.43;88.79;101848.86;1770903;71;24607;-80
2020/12/21 00:50:12;;;;;;;15.26;5.34;;;6.60;99.90;;;11.45;89.19;101858.92;1770031;71;24591;-80
2020/12/21 00:52:30;;;;;;;11.00;3.70;;;6.60;99.90;;;11.70;89.11;101847.33;1781052;70;24488;-79
2020/12/21 00:54:51;;;;;;;12.79;5.44;;;6.60;99.90;;;11.38;89.08;101845.70;1762015;71;24958;-81
2020/12/21 00:57:07;;;;;;;11.54;5.31;;;6.60;99.90;;;11.72;89.04;101853.05;1776444;71;24491;-79
2020/12/21 00:59:30;;;;;;;12.70;5.85;;;6.60;99.90;;;11.83;89.06;101857.19;1770170;71;24470;-82
2020/12/21 01:01:46;;;;;;;10.29;4.18;;;6.60;99.90;;;11.74;88.10;101850.48;1771417;71;25096;-80
2020/12/21 01:04:07;;;;;;;8.18;4.31;;;6.60;99.90;;;11.45;88.62;101854.11;1776917;71;24472;-79
2020/12/21 01:06:26;;;;;;;13.90;5.46;;;6.60;99.90;;;11.33;89.82;101852.53;1764884;70;24479;-80
2020/12/21 01:08:44;;;;;;;13.08;5.11;;;6.60;99.90;;;11.43;89.78;101851.92;1783613;71;24550;-80
2020/12/21 01:11:01;;;;;;;16.15;6.04;;;6.60;99.90;;;11.54;89.87;101850.44;1769130;72;24464;-82
2020/12/21 01:13:18;;;;;;;12.52;5.32;;;6.50;99.90;;;11.72;89.06;101849.14;1772060;71;24428;-82
2020/12/21 01:15:36;;;;;;;11.72;5.86;;;6.50;99.90;;;11.42;89.15;101847.11;1767529;71;24844;-81
2020/12/21 01:17:52;;;;;;;13.29;5.28;;;6.50;99.90;;;11.38;89.93;101837.89;1770859;71;24438;-82
2020/12/21 01:20:12;;;;;;;12.16;5.49;;;6.50;99.90;;;11.49;89.15;101858.57;1776530;70;24413;-81
2020/12/21 01:22:29;;;;;;;15.05;5.57;;;6.50;99.90;;;11.48;89.07;101845.94;1766056;71;24846;-80
2020/12/21 01:24:46;;;;;;;9.38;3.97;;;6.50;99.90;;;11.39;89.00;101844.85;1771765;71;24428;-80
2020/12/21 01:27:04;;;;;;;13.00;4.98;;;6.50;99.90;;;11.29;89.51;101849.38;1765909;71;24928;-80
2020/12/21 01:29:29;;;;;;;8.02;3.94;;;6.40;99.90;;;11.39;88.86;101855.28;1781480;71;24476;-81
2020/12/21 01:31:45;;;;;;;14.65;5.54;;;6.40;99.90;;;11.20;89.17;101848.77;1777007;71;24441;-83
2020/12/21 01:34:03;;;;;;;16.16;5.30;;;6.40;99.90;;;11.27;89.86;101850.65;1779556;70;24909;-80
2020/12/21 01:36:23;;;;;;;14.17;5.29;;;6.40;99.90;;;11.23;89.96;101851.85;1769633;71;24420;-82
2020/12/21 01:38:42;;;;;;;10.52;4.57;;;6.40;99.90;;;11.22;90.53;101855.31;1772617;71;24487;-81
2020/12/21 01:41:01;;;;;;;11.68;5.48;;;6.40;99.90;;;11.19;89.70;101848.28;1778723;71;24523;-80
2020/12/21 01:43:19;;;;;;;13.00;5.28;;;6.40;99.90;;;11.23;89.82;101841.42;1771443;71;24459;-81
2020/12/21 01:45:41;;;;;;;11.23;4.78;;;6.40;99.90;;;11.18;89.91;101853.05;1775743;71;25135;-81
2020/12/21 01:47:59;;;;;;;10.11;4.91;;;6.40;99.90;;;11.23;89.75;101854.05;1776074;70;24397;-83
2020/12/21 01:50:16;;;;;;;11.25;5.34;;;6.30;99.90;;;11.20;90.00;101850.06;1772777;71;24445;-79
2020/12/21 01:52:34;;;;;;;11.08;5.07;;;6.30;99.90;;;11.28;89.79;101847.63;1772045;71;24402;-79
2020/12/21 01:54:51;;;;;;;12.55;5.24;;;6.30;99.90;;;11.20;89.73;101843.95;1776867;70;24400;-79
2020/12/21 01:57:07;;;;;;;15.12;4.91;;;6.30;99.90;;;11.36;89.40;101848.28;1775313;71;24468;-80
2020/12/21 01:59:26;;;;;;;13.59;4.98;;;6.30;99.90;;;11.38;89.69;101854.39;1774739;71;24446;-82
2020/12/21 02:01:49;;;;;;;14.41;4.38;;;6.30;99.90;;;11.28;89.96;101852.44;1772036;70;24901;-81
2020/12/21 02:04:06;;;;;;;10.94;3.90;;;6.30;99.90;;;11.35;90.07;101853.02;1773010;71;24523;-81
2020/12/21 02:06:29;;;;;;;12.92;5.22;;;6.40;99.90;;;11.31;89.68;101852.91;1774594;71;24392;-82
2020/12/21 02:08:49;;;;;;;7.75;3.93;;;6.40;99.90;;;11.42;89.58;101859.27;1769899;71;24494;-80
2020/12/21 02:11:12;;;;;;;9.88;4.36;;;6.30;99.90;;;11.16;90.11;101855.17;1775076;71;24414;-80
2020/12/21 02:13:29;;;;;;;11.90;4.38;;;6.30;99.90;;;11.35;89.62;101853.47;1776524;71;24885;-79
2020/12/21 02:15:50;;;;;;;11.41;5.14;;;6.30;99.90;;;11.13;90.91;101855.96;1770690;71;24540;-79
2020/12/21 02:18:08;;;;;;;10.63;4.25;;;6.40;99.90;;;11.46;90.14;101850.69;1773950;70;24864;-81
2020/12/21 02:20:32;;;;;;;12.54;5.15;;;6.40;99.90;;;11.26;90.92;101859.33;1772355;71;24453;-82
2020/12/21 02:22:47;;;;;;;16.21;4.98;;;6.40;99.90;;;11.54;90.02;101859.56;1782953;70;24858;-81
2020/12/21 02:25:04;;;;;;;6.70;3.80;;;6.40;99.90;;;11.52;90.33;101857.34;1760775;71;24561;-79
2020/12/21 02:27:22;;;;;;;8.55;4.00;;;6.40;99.90;;;11.36;90.57;101851.30;1781660;71;24409;-81
2020/12/21 02:29:39;;;;;;;8.26;4.40;;;6.50;99.90;;;11.68;89.78;101850.34;1768128;70;24956;-79
2020/12/21 02:31:59;;;;;;;11.37;4.01;;;6.50;99.90;;;11.59;89.11;101850.09;1771941;71;24475;-80
2020/12/21 02:34:24;;;;;;;11.19;4.14;;;6.50;99.90;;;11.52;89.95;101850.81;1774015;71;24464;-79
2020/12/21 02:36:41;;;;;;;9.54;4.29;;;6.50;99.90;;;11.31;90.34;101847.29;1767320;71;24458;-81
2020/12/21 02:38:57;;;;;;;9.56;4.20;;;6.50;99.90;;;11.37;90.34;101859.57;1766144;72;24453;-80
2020/12/21 02:41:18;;;;;;;6.64;2.82;;;6.50;99.90;;;11.44;90.76;101857.58;1767392;71;24473;-82
2020/12/21 02:43:35;;;;;;;10.95;4.37;;;6.50;99.90;;;11.19;91.19;101860.02;1778739;71;24961;-82
2020/12/21 02:45:51;;;;;;;10.59;4.05;;;6.50;99.90;;;11.71;90.78;101856.48;1784143;70;24595;-81
2020/12/21 02:48:08;;;;;;;9.02;3.28;;;6.60;99.90;;;11.49;91.55;101841.62;1770927;71;24492;-80
2020/12/21 02:50:24;;;;;;;12.73;3.91;;;6.60;99.90;;;11.46;91.33;101846.77;1776471;71;24884;-81
2020/12/21 02:52:41;;;;;;;8.10;3.83;;;6.70;99.90;;;11.63;90.36;101842.39;1771649;71;24866;-79
2020/12/21 02:54:59;;;;;;;14.52;4.30;;;6.70;99.90;;;11.38;91.01;101850.92;1780011;70;24970;-81
2020/12/21 02:57:19;;;;;;;7.26;3.09;;;6.70;99.90;;;11.54;90.99;101854.34;1784221;71;24441;-79
2020/12/21 02:59:35;;;;;;;13.41;4.29;;;6.70;99.90;;;11.40;91.42;101851.81;1771228;71;24920;-82
2020/12/21 03:01:54;;;;;;;10.67;4.56;;;6.70;99.90;;;11.52;90.68;101849.51;1771789;71;24976;-81
2020/12/21 03:04:11;;;;;;;8.52;3.47;;;6.60;99.90;;;11.54;90.37;101846.52;1781193;71;24437;-83
2020/12/21 03:06:27;;;;;;;6.93;3.03;;;6.60;99.90;;;11.38;90.67;101850.92;1770815;71;24480;-81
2020/12/21 03:08:43;;;;;;;11.85;4.75;;;6.60;99.90;;;11.32;91.01;101845.12;1782604;71;24399;-82
2020/12/21 03:11:00;;;;;;;9.46;3.72;;;6.60;99.90;;;11.46;90.44;101841.55;1779261;70;24583;-80
2020/12/21 03:13:16;;;;;;;7.01;3.45;;;6.60;99.90;;;11.36;91.11;101831.33;1778867;71;24490;-81
2020/12/21 03:15:32;;;;;;;16.19;4.70;;;6.60;99.90;;;11.43;90.97;101831.91;1766469;71;24912;-81
2020/12/21 03:17:50;;;;;;;10.60;3.78;;;6.50;99.90;;;11.53;90.24;101830.39;1768534;71;24845;-81
2020/12/21 03:20:07;;;;;;;11.60;4.82;;;6.60;99.90;;;11.38;90.57;101833.98;1772031;71;24456;-82
2020/12/21 03:22:30;;;;;;;8.02;3.95;;;6.50;99.90;;;11.45;90.47;101824.13;1776714;71;24905;-78
2020/12/21 03:24:47;;;;;;;8.45;3.91;;;6.50;99.90;;;11.39;90.57;101834.01;1771628;72;24968;-80
2020/12/21 03:27:04;;;;;;;9.77;4.34;;;6.50;99.90;;;11.49;90.11;101833.80;1769853;71;24460;-81
2020/12/21 03:29:20;;;;;;;13.74;3.34;;;6.50;99.90;;;11.28;90.16;101831.58;1769210;72;24477;-82
2020/12/21 03:31:36;;;;;;;13.70;4.34;;;6.50;99.90;;;11.29;90.25;101825.92;1769433;71;24439;-79
2020/12/21 03:33:54;;;;;;;6.88;2.88;;;6.50;99.90;;;11.26;90.71;101821.52;1777409;71;24425;-80
2020/12/21 03:36:13;;;;;;;9.10;3.57;;;6.40;99.90;;;11.06;91.41;101826.70;1771494;71;24420;-80
2020/12/21 03:38:29;;;;;;;8.16;3.90;;;6.40;99.90;;;11.24;90.39;101818.44;1781149;71;24420;-81
2020/12/21 03:40:45;;;;;;;9.22;3.69;;;6.40;99.90;;;11.27;90.45;101825.02;1766375;72;24520;-81
2020/12/21 03:43:03;;;;;;;10.33;4.06;;;6.40;99.90;;;11.09;91.33;101833.28;1770655;72;24417;-80
2020/12/21 03:45:19;;;;;;;8.49;3.69;;;6.40;99.90;;;11.33;91.23;101827.77;1766121;71;24434;-80
2020/12/21 03:47:37;;;;;;;9.70;3.18;;;6.40;99.90;;;11.12;91.06;101832.47;1778300;71;24426;-80
2020/12/21 03:49:56;;;;;;;9.63;3.90;;;6.40;99.90;;;11.00;91.73;101826.97;1772703;72;24501;-82
2020/12/21 03:52:14;;;;;;;10.84;4.32;;;6.40;99.90;;;11.15;91.63;101823.00;1771354;71;24578;-79
2020/12/21 03:54:33;;;;;;;8.50;3.00;;;6.40;99.90;;;11.26;91.87;101827.15;1781983;71;24436;-81
2020/12/21 03:56:50;;;;;;;10.55;4.09;;;6.40;99.90;;;11.12;91.90;101822.93;1776951;70;24858;-81
2020/12/21 03:59:09;;;;;;;9.48;3.47;;;6.40;99.90;;;11.28;91.60;101825.47;1766327;71;25047;-80
2020/12/21 04:01:25;;;;;;;9.40;3.19;;;6.40;99.90;;;11.09;91.53;101829.78;1770105;71;24579;-82
2020/12/21 04:03:42;;;;;;;6.32;3.06;;;6.30;99.90;;;11.06;91.34;101831.91;1762380;70;24437;-79
2020/12/21 04:05:59;;;;;;;7.49;3.01;;;6.30;99.90;;;11.04;91.73;101825.77;1770701;71;24925;-81
2020/12/21 04:08:17;;;;;;;6.90;3.80;;;6.30;99.90;;;10.97;91.63;101820.38;1779326;71;24927;-81
2020/12/21 04:10:38;;;;;;;8.57;3.46;;;6.30;99.90;;;11.14;91.35;101815.14;1777349;71;24501;-80
2020/12/21 04:12:54;;;;;;;8.41;3.63;;;6.30;99.90;;;11.11;91.36;101819.84;1770561;71;24598;-79
2020/12/21 04:15:12;;;;;;;12.48;4.34;;;6.20;99.90;;;11.13;90.67;101816.00;1769421;72;24618;-81
2020/12/21 04:17:29;;;;;;;6.98;2.94;;;6.20;99.90;;;11.18;90.58;101815.66;1773515;71;24878;-80
2020/12/21 04:19:45;;;;;;;5.44;2.75;;;6.20;99.90;;;10.95;90.58;101820.76;1772322;70;24909;-81
2020/12/21 04:22:01;;;;;;;9.08;3.78;;;6.20;99.90;;;10.98;90.27;101813.02;1767743;71;24444;-80
2020/12/21 04:24:18;;;;;;;10.92;3.78;;;6.10;99.90;;;10.93;90.08;101814.62;1766160;71;24435;-81
2020/12/21 04:26:36;;;;;;;13.63;4.10;;;6.10;99.90;;;10.96;90.71;101815.58;1767762;71;24522;-80
2020/12/21 04:28:52;;;;;;;7.36;3.40;;;6.10;99.90;;;11.06;90.97;101806.26;1781949;71;24485;-81
2020/12/21 04:31:10;;;;;;;7.46;3.33;;;6.10;99.90;;;11.09;90.69;101809.83;1788059;71;24950;-79
2020/12/21 04:33:29;;;;;;;7.32;3.50;;;6.10;99.90;;;11.09;90.95;101802.02;1769198;71;24575;-81
2020/12/21 04:35:45;;;;;;;10.12;3.76;;;6.10;99.90;;;11.08;91.18;101805.44;1778162;71;24926;-81
2020/12/21 04:38:01;;;;;;;9.40;3.95;;;6.20;99.90;;;10.99;91.32;101793.91;1775034;71;24406;-80
2020/12/21 04:40:20;;;;;;;9.09;4.11;;;6.20;99.90;;;10.96;91.64;101797.34;1772751;71;24551;-82
2020/12/21 04:42:50;;;;;;;11.68;4.14;;;6.20;99.90;;;11.03;92.00;101799.67;1774582;71;24534;-80
2020/12/21 04:45:08;;;;;;;7.82;4.15;;;6.30;99.90;;;11.26;91.56;101795.45;1767352;71;24479;-80
2020/12/21 04:47:31;;;;;;;9.56;3.75;;;6.30;99.90;;;11.33;91.01;101803.89;1778426;71;24447;-81
2020/12/21 04:49:49;;;;;;;8.70;3.55;;;6.30;99.90;;;11.24;91.31;101799.73;1778031;71;24938;-80
2020/12/21 04:52:10;;;;;;;9.00;4.28;;;6.30;99.90;;;11.28;91.26;101791.58;1766092;71;24445;-80
2020/12/21 04:54:28;;;;;;;8.54;3.10;;;6.30;99.90;;;11.31;90.93;101792.94;1770183;71;24539;-83
2020/12/21 04:56:46;;;;;;;8.60;4.15;;;6.30;99.90;;;11.24;90.81;101788.45;1768182;71;24569;-81
2020/12/21 04:59:04;;;;;;;12.78;4.47;;;6.30;99.90;;;11.36;90.77;101779.18;1773588;71;24423;-81
2020/12/21 05:01:20;;;;;;;9.55;3.78;;;6.30;99.90;;;11.41;90.36;101784.05;1749417;71;24468;-81
2020/12/21 05:03:37;;;;;;;8.91;3.80;;;6.30;99.90;;;11.25;90.28;101769.34;1768518;71;24466;-83
2020/12/21 05:05:55;;;;;;;11.21;4.29;;;6.30;99.90;;;11.23;90.13;101773.64;1783524;71;24449;-81
2020/12/21 05:08:25;;;;;;;11.30;3.90;;;6.30;99.90;;;11.38;90.53;101781.38;1768819;72;24429;-81
2020/12/21 05:10:44;;;;;;;9.79;4.18;;;6.30;99.90;;;11.29;90.23;101771.16;1765918;71;24414;-81
2020/12/21 05:13:08;;;;;;;8.69;3.74;;;6.30;99.90;;;11.33;90.73;101770.41;1774349;71;24432;-81
2020/12/21 05:15:30;;;;;;;10.36;3.73;;;6.30;99.90;;;11.24;90.27;101778.89;1777506;71;24413;-81
2020/12/21 05:17:46;;;;;;;8.70;3.66;;;6.30;99.90;;;11.22;90.74;101775.80;1770238;72;24429;-82
2020/12/21 05:20:09;;;;;;;11.32;4.11;;;6.30;99.90;;;11.16;91.43;101773.06;1767818;71;24450;-81
2020/12/21 05:22:25;;;;;;;7.89;3.61;;;6.30;99.90;;;11.39;91.22;101777.94;1740875;72;24433;-81
2020/12/21 05:24:41;;;;;;;9.74;4.10;;;6.30;99.90;;;11.29;90.99;101768.14;1766594;71;24486;-80
2020/12/21 05:26:58;;;;;;;13.54;3.93;;;6.30;99.90;;;11.52;90.34;101763.44;1773686;71;24559;-79
2020/12/21 05:29:26;;;;;;;8.49;4.21;;;6.30;99.90;;;11.29;90.12;101762.93;1771959;71;24441;-80
2020/12/21 05:31:51;;;;;;;9.77;3.95;;;6.30;99.90;;;11.41;90.31;101763.19;1771809;71;24405;-83
2020/12/21 05:34:09;;;;;;;8.08;3.71;;;6.30;99.90;;;11.27;90.35;101759.84;1770095;71;24868;-80
2020/12/21 05:36:26;;;;;;;9.42;3.50;;;6.30;99.90;;;11.41;89.97;101745.37;1768115;72;24586;-80
2020/12/21 05:38:47;;;;;;;7.55;3.98;;;6.30;99.90;;;11.41;89.87;101755.36;1778110;71;24463;-81
2020/12/21 05:41:16;;;;;;;9.30;3.84;;;6.30;99.90;;;11.52;89.89;101753.00;1776838;71;24475;-81
2020/12/21 05:43:33;;;;;;;7.85;3.81;;;6.40;99.90;;;11.48;90.21;101755.96;1769513;71;24580;-80
2020/12/21 05:46:02;;;;;;;9.49;3.64;;;6.40;99.90;;;11.43;90.52;101746.30;1773694;72;24420;-80
2020/12/21 05:48:18;;;;;;;8.65;3.22;;;6.40;99.90;;;11.43;90.61;101741.08;1772445;71;24476;-79
2020/12/21 05:50:40;;;;;;;8.35;3.34;;;6.40;99.90;;;11.46;91.11;101743.30;1770841;71;24439;-82
2020/12/21 05:52:59;;;;;;;6.80;3.52;;;6.40;99.90;;;11.41;90.55;101744.07;1766169;72;24884;-80
2020/12/21 05:55:15;;;;;;;9.70;3.80;;;6.40;99.90;;;11.47;90.63;101740.28;1788161;71;24500;-80
2020/12/21 05:57:34;;;;;;;9.95;3.41;;;6.50;99.90;;;11.44;90.66;101741.52;1778689;70;24896;-82
2020/12/21 05:59:52;;;;;;;8.13;3.15;;;6.50;99.90;;;11.43;90.85;101738.03;1793883;70;24895;-80
2020/12/21 06:02:10;;;;;;;6.24;3.13;;;6.50;99.90;;;11.40;91.30;101739.27;1770069;71;25210;-82
2020/12/21 06:04:32;;;;;;;9.30;3.72;;;6.50;99.90;;;11.55;90.77;101738.72;1768877;71;24556;-84
2020/12/21 06:06:53;;;;;;;9.56;3.37;;;6.50;99.90;;;11.63;90.34;101739.34;1773294;71;24984;-80
2020/12/21 06:09:10;;;;;;;9.04;3.86;;;6.60;99.90;;;11.49;90.60;101739.91;1771780;71;24889;-81
2020/12/21 06:11:29;;;;;;;8.21;3.47;;;6.60;99.90;;;11.66;90.16;101747.67;1771785;71;24480;-81
2020/12/21 06:13:57;;;;;;;11.25;4.11;;;6.50;99.90;;;11.53;90.27;101749.13;1789858;71;24410;-82
2020/12/21 06:16:18;;;;;;;9.74;3.43;;;6.50;99.90;;;11.81;90.04;101747.97;1779394;70;24465;-82
2020/12/21 06:18:57;;;;;;;9.57;3.54;;;6.60;99.90;;;11.72;89.44;101744.77;1759783;72;24481;-83
2020/12/21 06:21:26;;;;;;;7.63;3.34;;;6.60;99.90;;;11.48;89.59;101732.91;1770014;71;24445;-83
2020/12/21 06:23:46;;;;;;;8.08;4.00;;;6.60;99.90;;;11.55;90.61;101743.52;1765429;72;24393;-83
2020/12/21 06:26:15;;;;;;;9.08;3.17;;;6.60;99.90;;;11.82;89.88;101740.62;1770420;72;24931;-81
2020/12/21 06:28:38;;;;;;;7.91;3.06;;;6.60;99.90;;;11.66;90.33;101732.91;1779937;71;24470;-83
2020/12/21 06:30:54;;;;;;;7.15;3.08;;;6.60;99.90;;;11.67;90.69;101746.81;1764478;72;24527;-83
2020/12/21 06:33:10;;;;;;;9.23;3.51;;;6.70;99.90;;;11.70;91.04;101737.74;1770536;71;24561;-81
2020/12/21 06:35:27;;;;;;;7.23;3.14;;;6.70;99.90;;;11.79;90.61;101739.25;1776848;71;24891;-83
2020/12/21 06:37:46;;;;;;;6.70;3.36;;;6.80;99.90;;;11.71;91.67;101736.47;1778254;71;24506;-81
2020/12/21 06:40:06;;;;;;;5.30;2.52;;;6.90;99.90;;;11.76;91.91;101733.98;1766875;72;24458;-79
2020/12/21 06:42:27;;;;;;;4.13;2.50;;;6.90;99.90;;;11.73;91.29;101727.37;1784407;71;24543;-81
2020/12/21 06:44:54;;;;;;;6.35;3.20;;;6.90;99.90;;;11.75;91.28;101730.48;1774193;71;24403;-81
2020/12/21 06:47:16;;;;;;;7.01;3.57;;;6.90;99.90;;;11.95;90.96;101729.13;1774860;71;24406;-82
2020/12/21 06:49:35;;;;;;;7.73;3.60;;;6.90;99.90;;;11.91;90.43;101723.83;1772759;71;24366;-80
2020/12/21 06:51:53;;;;;;;7.23;3.65;;;6.90;99.90;;;12.01;90.50;101724.02;1779056;70;24846;-80
2020/12/21 06:54:17;;;;;;;8.46;3.66;;;6.90;99.90;;;11.95;89.97;101726.52;1784319;71;24440;-81
2020/12/21 06:56:34;;;;;;;6.37;2.72;;;6.90;99.90;;;11.97;89.39;101724.83;1772095;72;24435;-81
2020/12/21 06:58:59;;;;;;;15.33;3.55;;;6.90;99.90;;;11.92;89.14;101720.35;1769895;71;24901;-81
2020/12/21 07:01:21;;;;;;;5.15;3.00;;;6.90;99.90;;;12.01;89.30;101727.08;1770874;71;24427;-81
2020/12/21 07:03:42;;;;;;;8.96;3.76;;;6.90;99.90;;;11.95;89.18;101732.16;1770362;71;24460;-82
2020/12/21 07:06:00;;;;;;;9.33;3.13;;;6.90;99.90;;;12.01;88.60;101728.37;1765913;71;24533;-81
2020/12/21 07:08:32;;;;;;;10.60;3.80;;;6.90;99.90;;;11.78;89.58;101727.03;1768933;71;24520;-80
2020/12/21 07:10:57;;;;;;;6.69;2.65;;;6.90;99.90;;;12.01;89.14;101729.69;1775694;71;24501;-80
2020/12/21 07:13:15;;;;;;;7.46;3.15;;;6.90;99.90;;;11.80;89.95;101734.06;1767059;71;24548;-81
2020/12/21 07:16:02;;;;;;;7.25;2.90;;;6.90;99.90;;;11.99;89.68;101727.46;1764031;71;24417;-80
2020/12/21 07:18:23;;;;;;;9.86;2.99;;;7.00;99.90;;;11.99;89.26;101719.22;1776736;71;24354;-77
2020/12/21 07:20:48;;;;;;;11.44;3.14;;;7.00;99.90;;;11.91;90.71;101726.02;1772321;71;24453;-81
2020/12/21 07:23:05;;;;;;;7.97;2.87;;;7.00;99.90;;;12.00;89.89;101723.58;1785809;71;24801;-83
2020/12/21 07:25:44;;;;;;;5.85;2.64;;;7.00;99.90;;;12.19;89.96;101706.50;1774198;71;24878;-84
2020/12/21 07:28:03;;;;;;;8.51;3.28;;;7.10;99.90;;;12.05;89.71;101706.69;1784693;71;24434;-81
2020/12/21 07:30:21;;;;;;;7.78;2.64;;;7.00;99.90;;;12.09;89.44;101708.52;1774063;72;24497;-83
2020/12/21 07:32:40;;;;;;;4.65;2.79;;;7.10;99.90;;;12.01;89.52;101711.41;1771806;71;24460;-84
2020/12/21 07:34:59;;;;;;;7.49;2.95;;;7.10;99.90;;;12.03;90.05;101717.52;1771563;71;24871;-81
2020/12/21 07:37:18;;;;;;;5.37;2.62;;;7.10;99.90;;;11.93;89.72;101722.13;1772469;71;24874;-81
2020/12/21 07:39:38;;;;;;;5.48;2.35;;;7.10;99.90;;;11.92;90.40;101733.41;1781832;71;24441;-83
2020/12/21 07:41:57;;;;;;;6.00;1.88;;;7.10;99.90;;;11.78;90.70;101724.02;1769941;71;24446;-81
2020/12/21 07:44:19;;;;;;;8.93;3.04;;;7.10;99.90;;;11.60;91.73;101723.59;1768935;70;24451;-81
2020/12/21 07:46:46;;;;;;;6.01;3.09;;;7.10;99.90;;;11.95;90.48;101711.27;1777422;71;24405;-83
2020/12/21 07:49:02;;;;;;;9.10;3.21;;;7.10;99.90;;;12.00;90.21;101708.33;1774020;71;24428;-82
2020/12/21 07:51:32;;;;;;;4.43;2.21;;;7.10;99.90;;;12.14;89.80;101692.06;1770435;71;24421;-81
2020/12/21 07:53:50;;;;;;;7.08;3.02;;;7.20;99.90;;;11.83;90.11;101696.28;1716448;71;24875;-83
2020/12/21 07:56:10;;;;;;;9.80;3.10;;;7.10;99.90;;;12.12;88.82;101687.69;1778496;70;24439;-83
2020/12/21 07:58:31;;;;;;;4.76;2.30;;;7.10;99.90;;;11.94;89.25;101688.23;1774007;71;24932;-84
2020/12/21 08:00:59;;;;;;;6.57;2.86;;;7.10;99.90;;;11.85;89.88;101675.44;1769438;71;24985;-87
2020/12/21 08:03:17;;;;;;;10.89;2.96;;;7.10;99.90;;;12.47;88.45;101678.69;1769374;71;24467;-82
2020/12/21 08:05:39;;;;;;;5.44;3.14;;;7.20;99.90;;;12.16;88.76;101681.64;1771139;71;24705;-86
2020/12/21 08:08:06;;;;;;;9.04;3.46;;;7.30;99.90;;;12.13;89.59;101682.91;1764514;71;24446;-85
2020/12/21 08:10:28;;;;;;;8.20;3.09;;;7.30;99.90;;;12.31;90.08;101681.92;1779202;71;24544;-83
2020/12/21 08:12:44;;;;;;;6.43;2.70;;;7.40;99.90;;;12.25;90.01;101677.87;1767243;71;24545;-84
2020/12/21 08:15:07;;;;;;;7.69;3.02;;;7.40;99.90;;;12.45;88.71;101684.34;1769982;71;24446;-84
2020/12/21 08:17:26;;;;;;;5.31;2.38;;;7.40;99.90;;;12.35;89.29;101686.33;1737395;72;24392;-84
2020/12/21 08:19:51;;;;;;;5.75;2.50;;;7.50;99.90;;;12.49;88.44;101688.74;1781367;71;24934;-85
2020/12/21 08:22:08;;;;;;;5.24;2.43;;;7.60;99.90;;;12.54;87.93;101684.47;1772320;71;24633;-83
2020/12/21 08:24:30;;;;;;;3.70;1.87;;;7.60;99.90;;;12.32;88.29;101679.75;1771955;71;24443;-81
2020/12/21 08:26:48;;;;;;;9.42;2.89;;;7.60;99.90;;;12.20;88.70;101675.64;1781276;71;24479;-81
2020/12/21 08:29:26;;;;;;;6.34;2.72;;;7.60;99.90;;;12.42;88.02;101667.73;1787028;71;24530;-81
2020/12/21 08:31:46;;;;;;;8.91;3.22;;;7.60;99.90;;;12.47;87.69;101663.02;1779099;71;24427;-78
2020/12/21 08:34:10;;;;;;;5.12;2.43;;;7.60;99.90;;;12.59;87.52;101667.14;1774661;70;24483;-81
2020/12/21 08:36:35;;;;;;;3.86;2.24;;;7.60;99.90;;;12.38;87.23;101662.02;1767186;72;24505;-80
2020/12/21 08:38:56;;;;;;;4.93;2.63;;;7.60;99.90;;;12.41;87.74;101661.61;1781135;71;24920;-81
2020/12/21 08:41:16;;;;;;;6.50;2.72;;;7.60;99.90;;;12.49;87.30;101663.92;1777982;71;24605;-80
2020/12/21 08:43:34;;;;;;;6.96;2.49;;;7.60;99.90;;;12.45;87.24;101656.91;1777540;71;24472;-81
2020/12/21 08:45:52;;;;;;;7.85;2.28;;;7.70;99.90;;;12.60;86.92;101651.05;1777128;71;24415;-80
2020/12/21 08:48:09;;;;;;;6.55;2.85;;;7.70;99.90;;;12.46;87.91;101659.07;1775877;71;24497;-81
2020/12/21 08:50:29;;;;;;;6.51;3.02;;;7.80;99.90;;;12.83;86.01;101658.78;1770602;72;24464;-83
2020/12/21 08:52:50;;;;;;;6.63;2.31;;;7.80;99.90;;;12.96;85.65;101664.64;1777884;71;24434;-81
2020/12/21 08:55:10;;;;;;;7.35;2.82;;;7.80;99.90;;;12.76;86.03;101655.20;1778497;71;24477;-80
2020/12/21 08:57:28;;;;;;;7.50;2.68;;;7.90;99.90;;;12.90;85.66;101656.27;1769665;71;24525;-80
2020/12/21 08:59:48;;;;;;;7.47;2.84;;;7.90;99.90;;;12.83;85.61;101647.91;1765406;72;24507;-80
2020/12/21 09:02:08;;;;;;;4.95;2.33;;;7.90;99.90;;;13.01;85.07;101643.41;1770996;70;24476;-82
2020/12/21 09:04:28;;;;;;;8.51;2.64;;;7.90;99.90;;;12.77;85.73;101653.02;1772137;71;24369;-81
2020/12/21 09:06:50;;;;;;;5.47;2.11;;;7.90;99.90;;;12.80;85.73;101652.20;1765469;71;24520;-80
2020/12/21 09:09:09;;;;;;;4.51;2.40;;;8.00;99.90;;;12.66;86.50;101662.89;1779534;70;24443;-79
2020/12/21 09:11:27;;;;;;;8.06;2.58;;;8.00;99.90;;;12.92;85.81;101650.64;1780999;71;24476;-79
2020/12/21 09:13:46;;;;;;;6.74;2.46;;;8.00;99.90;;;12.80;85.29;101649.18;1769388;71;24587;-80
2020/12/21 09:16:08;;;;;;;8.11;2.71;;;8.00;99.90;;;12.86;85.67;101651.88;1767004;71;24475;-78
2020/12/21 09:18:25;;;;;;;7.88;2.33;;;8.10;99.90;;;13.05;85.16;101646.07;1749976;72;24577;-79
2020/12/21 09:20:49;;;;;;;5.97;2.09;;;8.20;99.90;;;13.02;84.36;101647.77;1771368;71;24918;-78
2020/12/21 09:23:11;;;;;;;7.07;2.57;;;8.20;99.90;;;13.00;85.04;101646.44;1771362;71;25067;-82
2020/12/21 09:25:30;;;;;;;3.87;2.13;;;8.20;99.90;;;13.01;84.34;101642.95;1777962;71;24493;-77
2020/12/21 09:27:48;;;;;;;6.04;2.56;;;8.20;99.90;;;13.04;84.50;101645.60;1772796;71;24511;-81
2020/12/21 09:30:07;;;;;;;6.76;2.77;;;8.30;99.90;;;13.12;83.90;101644.42;1766292;71;24944;-80
2020/12/21 09:32:24;;;;;;;5.93;2.40;;;8.30;99.90;;;13.29;83.17;101638.97;1771677;71;24428;-79
2020/12/21 09:34:42;;;;;;;6.08;2.34;;;8.40;99.90;;;13.09;84.15;101638.70;1767076;71;24528;-79
2020/12/21 09:36:58;;;;;;;6.16;2.45;;;8.40;99.90;;;13.20;83.45;101638.41;1781118;71;24395;-80
2020/12/21 09:39:16;;;;;;;6.83;2.38;;;8.40;99.90;;;13.29;82.92;101629.36;1771975;71;24625;-78
2020/12/21 09:41:33;;;;;;;6.68;1.67;;;8.40;99.90;;;13.12;83.46;101627.42;1773351;71;24685;-79
2020/12/21 09:44:03;;;;;;;5.84;2.49;;;8.40;99.90;;;13.13;83.65;101626.13;1777694;71;24492;-79
2020/12/21 09:46:26;;;;;;;6.48;2.43;;;8.40;99.90;;;13.23;83.22;101623.20;1781008;71;24503;-79